KPDT/PDT METAR and TAF weather

Enter ICAO airport designator
Station Type Date Time Source
KPDT METAR 2024/04/15 07:53 UTC NOAA

KPDT 150753Z AUTO 26016KT 10SM CLR 13/03 A2996 RMK AO2 PK WND 26027/0733 SLP134 T01280028 402390078


Station Type Date Time Source
KPDT Decoded METAR 2024/04/15 07:53 UTC NOAA

PENDLETON MUNICIPAL AIRPORT, OR, United States (KPDT) 45-70N 118-83W 458M
Apr 15, 2024 - 03:53 AM EDT / 2024.04.15 0753 UTC
Wind: from the W (260 degrees) at 18 MPH (16 KT):0
Visibility: 10 mile(s):0
Sky conditions: clear
Temperature: 55.0 F (12.8 C)
Dew Point: 37.0 F (2.8 C)
Relative Humidity: 50%
Pressure (altimeter): 29.96 in. Hg (1014 hPa)
ob: KPDT 150753Z AUTO 26016KT 10SM CLR 13/03 A2996 RMK AO2 PK WND 26027/0733 SLP134 T01280028 402390078
cycle: 8

Station Type Date Time Source
KPDT TAF 2024/04/15 07:09 UTC NOAA